Time;durP1;ratioP1;P1;durP2;ratioP2;P2;SDS_P1;SDS_P2;PMS_P1;PMS_P2;Temp;Humidity;BMP_temperature;BMP_pressure;BME280_temperature;BME280_humidity;BME280_pressure;Samples;Min_cycle;Max_cycle;Signal;HPM_P1;HPM_P2
2022/05/19 00:00:21;;;;;;;;;;;;;;;22.31;36.51;101885.91;4997373;28;97561;-67
2022/05/19 00:02:48;;;;;;;;;;;;;;;22.42;36.35;101888.72;5000066;28;97226;-66
2022/05/19 00:05:14;;;;;;;;;;;;;;;22.31;36.49;101885.91;5002749;28;98545;-67
2022/05/19 00:07:41;;;;;;;;;;;;;;;22.42;36.40;101883.34;4999742;28;99408;-67
2022/05/19 00:10:09;;;;;;;;;;;;;;;22.31;36.86;101885.91;4996911;28;99606;-66
2022/05/19 00:12:35;;;;;;;;;;;;;;;22.25;36.91;101881.75;5000646;28;98527;-67
2022/05/19 00:15:01;;;;;;;;;;;;;;;22.44;36.48;101884.13;5005104;28;96892;-73
2022/05/19 00:17:28;;;;;;;;;;;;;;;22.33;36.66;101883.94;5006105;28;99283;-72
2022/05/19 00:19:58;;;;;;;;;;;;;;;22.34;36.80;101880.28;5003587;28;99158;-72
2022/05/19 00:22:24;;;;;;;;;;;;;;;22.33;36.72;101883.09;5002235;28;96737;-73
2022/05/19 00:24:50;;;;;;;;;;;;;;;22.36;36.72;101889.16;5002240;28;97166;-74
2022/05/19 00:27:18;;;;;;;;;;;;;;;22.17;37.03;101878.75;5004252;28;98191;-73
2022/05/19 00:29:44;;;;;;;;;;;;;;;22.17;37.22;101876.03;4998521;28;98679;-73
2022/05/19 00:32:10;;;;;;;;;;;;;;;22.30;37.07;101880.63;5004984;28;96982;-72
2022/05/19 00:34:37;;;;;;;;;;;;;;;22.08;37.29;101882.03;5012061;28;96796;-74
2022/05/19 00:37:04;;;;;;;;;;;;;;;22.17;37.12;101873.34;5000040;28;97741;-72
2022/05/19 00:39:30;;;;;;;;;;;;;;;22.11;37.24;101873.75;5004344;28;98838;-73
2022/05/19 00:44:38;;;;;;;;;;;;;;;21.71;38.09;101875.47;5000451;28;97185;-72
2022/05/19 00:47:05;;;;;;;;;;;;;;;21.69;38.23;101881.88;5002663;28;99479;-73
2022/05/19 00:49:34;;;;;;;;;;;;;;;21.99;37.87;101871.84;5009578;28;99491;-73
2022/05/19 00:52:03;;;;;;;;;;;;;;;21.91;37.75;101876.88;5005191;28;96864;-74
2022/05/19 00:54:33;;;;;;;;;;;;;;;21.80;38.32;101874.84;5006698;28;96902;-72
2022/05/19 00:57:02;;;;;;;;;;;;;;;21.97;37.88;101875.63;5006983;28;102165;-70
2022/05/19 00:59:30;;;;;;;;;;;;;;;21.62;38.40;101875.16;4999555;28;101321;-72
2022/05/19 01:01:58;;;;;;;;;;;;;;;21.81;38.28;101881.97;5005208;28;97315;-75
2022/05/19 01:04:26;;;;;;;;;;;;;;;21.62;38.76;101883.25;5008092;28;97154;-74
2022/05/19 01:06:55;;;;;;;;;;;;;;;21.50;38.92;101882.19;5007014;28;97744;-74
2022/05/19 01:09:21;;;;;;;;;;;;;;;21.74;38.64;101877.94;5005285;28;101008;-73
2022/05/19 01:11:53;;;;;;;;;;;;;;;21.84;38.32;101871.00;5007933;28;96720;-73
2022/05/19 01:14:20;;;;;;;;;;;;;;;21.67;38.63;101870.34;5007122;28;97580;-75
2022/05/19 01:16:46;;;;;;;;;;;;;;;21.71;38.50;101867.41;5004495;28;99574;-74
2022/05/19 01:19:19;;;;;;;;;;;;;;;21.57;38.69;101869.22;5007192;28;97522;-74
2022/05/19 01:21:45;;;;;;;;;;;;;;;21.65;38.44;101865.09;4996750;28;96915;-73
2022/05/19 01:24:16;;;;;;;;;;;;;;;21.85;38.22;101861.13;5007542;28;96893;-67
2022/05/19 01:26:48;;;;;;;;;;;;;;;21.66;38.52;101849.81;5006397;28;99151;-67
2022/05/19 01:29:16;;;;;;;;;;;;;;;21.40;38.97;101860.41;5003143;28;100983;-66
2022/05/19 01:31:46;;;;;;;;;;;;;;;21.55;38.88;101869.31;5005667;28;98354;-67
2022/05/19 01:34:12;;;;;;;;;;;;;;;21.39;39.16;101860.50;5001311;28;97644;-68
2022/05/19 01:36:39;;;;;;;;;;;;;;;21.23;39.46;101862.41;5004554;28;98989;-67
2022/05/19 01:39:08;;;;;;;;;;;;;;;21.31;39.21;101861.00;5001836;28;100992;-68
2022/05/19 01:41:43;;;;;;;;;;;;;;;21.30;39.18;101859.25;5002361;28;96785;-67
2022/05/19 01:44:19;;;;;;;;;;;;;;;21.28;39.26;101861.16;5004241;28;97480;-67
2022/05/19 01:46:47;;;;;;;;;;;;;;;21.31;39.36;101861.00;5004862;28;97798;-68
2022/05/19 01:49:17;;;;;;;;;;;;;;;21.06;39.61;101858.94;5002463;28;98797;-67
2022/05/19 01:51:46;;;;;;;;;;;;;;;21.09;39.51;101860.56;5003643;28;97267;-67
2022/05/19 01:54:17;;;;;;;;;;;;;;;21.39;39.25;101861.38;4998683;28;97652;-69
2022/05/19 01:56:47;;;;;;;;;;;;;;;21.39;38.89;101855.13;4997228;28;99305;-69
2022/05/19 01:59:19;;;;;;;;;;;;;;;21.50;38.64;101852.63;5005032;28;100483;-71
2022/05/19 02:01:49;;;;;;;;;;;;;;;21.21;39.15;101853.56;5002573;28;96728;-68
2022/05/19 02:04:17;;;;;;;;;;;;;;;21.21;39.23;101850.88;5005258;28;97576;-69
2022/05/19 02:06:45;;;;;;;;;;;;;;;21.37;39.02;101851.66;5002645;28;101139;-69
2022/05/19 02:09:15;;;;;;;;;;;;;;;21.19;39.44;101850.16;4996905;28;101090;-68
2022/05/19 02:11:44;;;;;;;;;;;;;;;21.37;39.16;101859.75;5001075;28;96808;-69
2022/05/19 02:14:13;;;;;;;;;;;;;;;21.39;39.11;101861.38;5005468;28;96796;-68
2022/05/19 02:16:41;;;;;;;;;;;;;;;21.22;39.61;101856.19;5002809;28;99326;-69
2022/05/19 02:19:08;;;;;;;;;;;;;;;21.40;39.08;101851.47;5003208;28;101120;-69
2022/05/19 02:21:35;;;;;;;;;;;;;;;21.41;38.74;101855.88;4997694;28;98003;-69
2022/05/19 02:24:02;;;;;;;;;;;;;;;21.37;38.96;101854.34;4999129;28;97101;-68
2022/05/19 02:26:31;;;;;;;;;;;;;;;21.21;39.33;101856.25;5001161;28;102222;-69
2022/05/19 02:28:59;;;;;;;;;;;;;;;21.11;39.65;101852.41;5005540;28;98957;-68
2022/05/19 02:31:26;;;;;;;;;;;;;;;21.32;39.03;101851.09;5001401;28;96968;-68
2022/05/19 02:33:54;;;;;;;;;;;;;;;21.30;39.25;101858.38;5003851;28;96819;-69
2022/05/19 02:36:20;;;;;;;;;;;;;;;21.22;39.32;101849.94;5004232;28;98930;-68
2022/05/19 02:38:46;;;;;;;;;;;;;;;21.34;38.78;101849.16;5000720;28;98986;-68
2022/05/19 02:41:13;;;;;;;;;;;;;;;21.37;38.76;101843.59;5001509;28;98878;-68
2022/05/19 02:43:39;;;;;;;;;;;;;;;21.19;38.86;101850.16;5001049;28;97224;-68
2022/05/19 02:46:05;;;;;;;;;;;;;;;21.09;39.38;101847.97;5006561;28;99560;-69
2022/05/19 02:48:33;;;;;;;;;;;;;;;21.26;39.08;101843.44;5002441;28;99335;-69
2022/05/19 02:51:00;;;;;;;;;;;;;;;21.08;39.15;101843.56;5002763;28;97422;-68
2022/05/19 02:53:27;;;;;;;;;;;;;;;20.97;39.41;101848.75;4997794;28;97746;-69
2022/05/19 02:55:53;;;;;;;;;;;;;;;21.01;39.27;101850.28;4999482;28;99251;-69
2022/05/19 02:58:20;;;;;;;;;;;;;;;21.00;39.36;101851.22;4997507;28;99266;-69
2022/05/19 03:00:48;;;;;;;;;;;;;;;21.06;39.21;101844.63;5002688;28;97120;-68
2022/05/19 03:03:14;;;;;;;;;;;;;;;21.16;38.99;101845.81;5002751;28;96749;-69
2022/05/19 03:05:40;;;;;;;;;;;;;;;21.03;39.19;101845.69;5005431;28;101084;-70
2022/05/19 03:08:09;;;;;;;;;;;;;;;20.85;39.44;101848.63;4997528;28;100426;-68
2022/05/19 03:10:36;;;;;;;;;;;;;;;21.15;38.96;101846.72;4999976;28;96823;-69
2022/05/19 03:13:03;;;;;;;;;;;;;;;21.06;39.11;101855.38;5003898;28;96874;-68
2022/05/19 03:15:30;;;;;;;;;;;;;;;21.13;38.63;101851.38;4996967;28;98103;-68
2022/05/19 03:17:56;;;;;;;;;;;;;;;21.17;38.87;101852.91;5002628;28;97510;-68
2022/05/19 03:20:23;;;;;;;;;;;;;;;21.28;38.61;101866.53;5001476;28;96920;-68
2022/05/19 03:22:49;;;;;;;;;;;;;;;21.22;38.76;101860.69;5001262;28;97169;-69
2022/05/19 03:25:17;;;;;;;;;;;;;;;20.91;39.09;101861.69;5000508;28;99204;-68
2022/05/19 03:27:43;;;;;;;;;;;;;;;20.98;38.88;101852.31;5002333;28;98837;-69
2022/05/19 03:30:12;;;;;;;;;;;;;;;21.09;38.84;101861.41;5003215;28;97314;-69
2022/05/19 03:32:38;;;;;;;;;;;;;;;21.04;38.84;101860.84;4995964;28;96874;-68
2022/05/19 03:35:05;;;;;;;;;;;;;;;21.22;38.53;101860.69;4997507;28;99513;-70
2022/05/19 03:37:31;;;;;;;;;;;;;;;21.02;38.84;101865.44;5006259;28;97802;-69
2022/05/19 03:39:57;;;;;;;;;;;;;;;21.13;38.45;101869.31;5002794;28;96843;-69
2022/05/19 03:42:25;;;;;;;;;;;;;;;21.31;38.26;101868.19;5002853;28;97411;-69
2022/05/19 03:44:51;;;;;;;;;;;;;;;21.09;38.75;101869.47;5002047;28;98807;-68
2022/05/19 03:47:18;;;;;;;;;;;;;;;21.06;38.66;101867.00;5005319;28;99107;-70
2022/05/19 03:49:44;;;;;;;;;;;;;;;21.15;38.99;101859.31;4998289;28;96849;-69
2022/05/19 03:52:10;;;;;;;;;;;;;;;21.14;38.69;101863.81;4997796;28;98957;-68
2022/05/19 03:54:36;;;;;;;;;;;;;;;21.02;38.79;101865.44;5002591;28;99353;-69
2022/05/19 03:57:03;;;;;;;;;;;;;;;21.21;38.72;101861.66;5003103;28;101415;-69
2022/05/19 03:59:31;;;;;;;;;;;;;;;21.06;38.65;101866.13;5001068;28;96824;-69
2022/05/19 04:01:57;;;;;;;;;;;;;;;21.19;38.55;101863.59;4998379;28;97180;-70
2022/05/19 04:04:23;;;;;;;;;;;;;;;21.18;38.47;101853.78;4998377;28;102867;-68
2022/05/19 04:06:49;;;;;;;;;;;;;;;21.22;38.57;101863.38;5006133;28;99036;-68
2022/05/19 04:09:16;;;;;;;;;;;;;;;21.39;38.14;101857.81;5006959;28;96814;-68
2022/05/19 04:11:42;;;;;;;;;;;;;;;21.41;38.16;101862.13;5006559;28;96846;-68
2022/05/19 04:14:09;;;;;;;;;;;;;;;21.23;38.59;101857.91;5003128;28;99374;-69
2022/05/19 04:16:36;;;;;;;;;;;;;;;21.20;38.34;101865.31;5007041;28;101634;-68
2022/05/19 04:19:03;;;;;;;;;;;;;;;21.14;38.53;101853.06;5001721;28;96867;-68
2022/05/19 04:21:30;;;;;;;;;;;;;;;21.11;38.70;101861.34;5002926;28;97844;-68
2022/05/19 04:23:57;;;;;;;;;;;;;;;21.12;38.92;101860.38;5001496;28;101291;-70
2022/05/19 04:26:23;;;;;;;;;;;;;;;21.09;38.96;101860.56;5008711;28;100265;-68
2022/05/19 04:28:49;;;;;;;;;;;;;;;21.28;38.53;101858.47;5001224;28;96752;-68
2022/05/19 04:31:16;;;;;;;;;;;;;;;21.23;38.56;101855.22;5007040;28;96799;-68
2022/05/19 04:33:43;;;;;;;;;;;;;;;21.60;38.10;101856.44;5007305;28;99260;-69
2022/05/19 04:36:09;;;;;;;;;;;;;;;21.70;37.82;101849.53;5005760;28;99398;-67
2022/05/19 04:38:36;;;;;;;;;;;;;;;21.69;37.76;101857.69;5001849;28;97640;-66
2022/05/19 04:41:03;;;;;;;;;;;;;;;21.76;37.44;101849.13;5004052;28;96969;-67
2022/05/19 04:43:30;;;;;;;;;;;;;;;21.74;37.29;101848.34;4999993;28;98855;-68
2022/05/19 04:45:57;;;;;;;;;;;;;;;21.81;37.18;101849.69;5004852;28;98779;-66
2022/05/19 04:48:24;;;;;;;;;;;;;;;21.75;37.44;101847.38;4997572;28;96817;-66
2022/05/19 04:50:52;;;;;;;;;;;;;;;21.61;37.85;101857.31;5003362;28;99220;-66
2022/05/19 04:53:18;;;;;;;;;;;;;;;21.85;37.35;101850.34;5000809;28;99446;-66
2022/05/19 04:55:45;;;;;;;;;;;;;;;22.21;36.47;101856.03;5003044;28;98165;-66
2022/05/19 04:58:11;;;;;;;;;;;;;;;22.25;36.51;101851.31;5000038;28;97037;-66
2022/05/19 05:00:37;;;;;;;;;;;;;;;22.49;35.78;101863.13;5005545;28;97908;-67
2022/05/19 05:03:05;;;;;;;;;;;;;;;22.69;35.70;101863.59;5007026;28;98865;-67
2022/05/19 05:05:31;;;;;;;;;;;;;;;22.95;35.14;101860.84;5008644;28;99135;-66
2022/05/19 05:07:58;;;;;;;;;;;;;;;23.20;34.88;101856.41;5002029;28;96879;-67
2022/05/19 05:10:25;;;;;;;;;;;;;;;23.88;33.28;101858.72;5007540;28;96881;-66
2022/05/19 05:12:51;;;;;;;;;;;;;;;24.02;33.48;101861.25;5003525;28;101340;-67
2022/05/19 05:15:18;;;;;;;;;;;;;;;23.60;34.22;101862.56;4998275;28;98884;-67
2022/05/19 05:17:44;;;;;;;;;;;;;;;23.31;34.72;101857.38;4999233;28;98502;-67
2022/05/19 05:20:12;;;;;;;;;;;;;;;23.18;35.07;101870.00;5005215;28;96889;-65
2022/05/19 05:22:39;;;;;;;;;;;;;;;22.59;35.62;101863.34;5005757;28;98950;-67
2022/05/19 05:25:08;;;;;;;;;;;;;;;22.89;35.39;101868.50;5002764;28;98865;-67
2022/05/19 05:27:34;;;;;;;;;;;;;;;22.82;35.57;101867.19;5003154;28;96955;-68
2022/05/19 05:30:01;;;;;;;;;;;;;;;22.79;35.46;101864.69;5002635;28;96822;-67
2022/05/19 05:32:27;;;;;;;;;;;;;;;23.57;34.60;101862.75;5005515;28;98245;-68
2022/05/19 05:34:54;;;;;;;;;;;;;;;23.60;34.85;101867.94;5003805;28;99237;-67
2022/05/19 05:37:20;;;;;;;;;;;;;;;23.09;35.27;101867.97;5002121;28;97064;-67
2022/05/19 05:39:46;;;;;;;;;;;;;;;23.18;35.27;101872.69;5002433;28;97363;-67
2022/05/19 05:42:14;;;;;;;;;;;;;;;22.74;35.66;101866.84;5005256;28;100249;-67
2022/05/19 05:44:40;;;;;;;;;;;;;;;22.73;35.66;101876.75;5002755;28;99131;-66
2022/05/19 05:47:07;;;;;;;;;;;;;;;22.52;35.95;101873.66;5008289;28;96833;-67
2022/05/19 05:49:33;;;;;;;;;;;;;;;22.82;35.99;101875.28;5004781;28;97195;-66
2022/05/19 05:51:59;;;;;;;;;;;;;;;22.88;35.91;101880.25;5006273;28;99009;-66
2022/05/19 05:54:26;;;;;;;;;;;;;;;23.02;35.84;101878.31;5001371;28;99312;-68
2022/05/19 05:56:52;;;;;;;;;;;;;;;23.27;35.58;101872.06;5003295;28;96844;-66
2022/05/19 05:59:20;;;;;;;;;;;;;;;23.11;35.65;101876.78;5002313;28;97294;-68
2022/05/19 06:01:46;;;;;;;;;;;;;;;23.44;35.43;101879.78;5006293;28;98923;-66
2022/05/19 06:04:12;;;;;;;;;;;;;;;23.22;35.73;101873.34;5006583;28;100915;-66
2022/05/19 06:06:38;;;;;;;;;;;;;;;23.18;35.84;101877.22;5003936;28;97760;-66
2022/05/19 06:09:05;;;;;;;;;;;;;;;23.11;35.72;101868.72;5003980;28;97259;-67
2022/05/19 06:11:31;;;;;;;;;;;;;;;23.52;35.25;101873.88;5005276;28;102091;-66
2022/05/19 06:13:58;;;;;;;;;;;;;;;23.75;35.03;101877.63;5002527;28;100711;-66
2022/05/19 06:16:26;;;;;;;;;;;;;;;24.05;34.78;101867.28;5000911;28;97233;-69
2022/05/19 06:18:52;;;;;;;;;;;;;;;24.45;34.17;101872.41;5003115;28;100302;-66
2022/05/19 06:21:18;;;;;;;;;;;;;;;24.34;34.12;101869.66;5004356;28;98959;-67
2022/05/19 06:23:44;;;;;;;;;;;;;;;24.08;34.82;101867.06;5002486;28;99000;-68
2022/05/19 06:26:11;;;;;;;;;;;;;;;24.32;34.26;101877.00;4994910;28;96773;-66
2022/05/19 06:28:37;;;;;;;;;;;;;;;23.81;35.37;101872.66;4999111;28;98713;-66
2022/05/19 06:31:04;;;;;;;;;;;;;;;24.28;34.55;101865.59;5005010;28;98978;-69
2022/05/19 06:33:35;;;;;;;;;;;;;;;24.38;34.74;101865.75;4994771;28;100050;-65
2022/05/19 06:36:02;;;;;;;;;;;;;;;24.85;34.03;101870.19;5000338;28;98735;-66
2022/05/19 06:38:28;;;;;;;;;;;;;;;24.97;33.76;101872.84;4997386;28;96968;-68
2022/05/19 06:42:00;;;;;;;;;;;;;;;24.66;34.42;101865.38;4996961;28;99238;-67
2022/05/19 06:43:42;;;;;;;;;;;;;;;24.91;34.22;101859.81;4994180;28;98937;-67
2022/05/19 06:46:08;;;;;;;;;;;;;;;24.48;34.57;101862.22;4998193;28;96837;-66
2022/05/19 06:48:36;;;;;;;;;;;;;;;25.30;33.58;101860.34;5002964;28;97016;-67
2022/05/19 06:51:03;;;;;;;;;;;;;;;25.83;32.93;101855.16;4995786;28;98911;-66
2022/05/19 06:53:29;;;;;;;;;;;;;;;25.15;33.45;101853.44;4996574;28;98901;-67
2022/05/19 06:55:56;;;;;;;;;;;;;;;25.14;33.95;101851.75;4988964;28;98664;-67
2022/05/19 06:58:22;;;;;;;;;;;;;;;25.63;33.09;101843.25;4992487;28;98806;-66
2022/05/19 07:00:49;;;;;;;;;;;;;;;25.82;33.12;101846.19;4999455;28;99023;-68
2022/05/19 07:03:15;;;;;;;;;;;;;;;25.33;33.24;101844.75;5000809;28;97523;-68
2022/05/19 07:05:43;;;;;;;;;;;;;;;25.75;33.03;101840.41;4995464;28;99137;-68
2022/05/19 07:08:09;;;;;;;;;;;;;;;26.08;32.45;101842.16;4998607;28;96940;-67
2022/05/19 07:10:36;;;;;;;;;;;;;;;25.43;33.47;101842.13;4996865;28;99745;-68
2022/05/19 07:13:02;;;;;;;;;;;;;;;24.79;34.04;101833.72;4998304;28;98815;-71
2022/05/19 07:15:28;;;;;;;;;;;;;;;25.47;33.44;101831.94;4996552;28;97758;-72
2022/05/19 07:17:55;;;;;;;;;;;;;;;25.37;33.42;101829.09;4996725;28;98856;-74
2022/05/19 07:23:08;;;;;;;;;;;;;;;25.52;33.20;101822.47;4997631;28;97081;-72
2022/05/19 07:25:34;;;;;;;;;;;;;;;25.91;33.26;101812.06;4999840;28;99005;-71
2022/05/19 07:28:01;;;;;;;;;;;;;;;26.45;32.34;101809.31;4992149;28;97673;-73
2022/05/19 07:30:27;;;;;;;;;;;;;;;25.91;32.97;101806.66;4997297;28;98968;-70
2022/05/19 07:32:54;;;;;;;;;;;;;;;26.25;32.96;101804.72;5006717;28;98762;-70
2022/05/19 07:35:21;;;;;;;;;;;;;;;26.34;32.48;101812.03;5004431;28;97686;-70
2022/05/19 07:37:48;;;;;;;;;;;;;;;26.43;32.45;101814.84;4996519;28;97391;-73
2022/05/19 07:40:16;;;;;;;;;;;;;;;26.67;32.26;101806.44;5006084;28;99434;-72
2022/05/19 07:42:42;;;;;;;;;;;;;;;26.51;32.56;101803.34;5005768;28;98974;-72
2022/05/19 07:45:09;;;;;;;;;;;;;;;27.07;31.77;101808.41;5002630;28;97781;-70
2022/05/19 07:47:36;;;;;;;;;;;;;;;27.23;31.43;101809.66;5001281;28;97230;-71
2022/05/19 07:50:03;;;;;;;;;;;;;;;27.17;31.38;101806.63;4997946;28;97265;-72
2022/05/19 07:52:30;;;;;;;;;;;;;;;27.52;31.38;101803.47;4997763;28;96861;-72
2022/05/19 07:55:00;;;;;;;;;;;;;;;27.46;31.58;101807.56;4990956;28;97366;-73
2022/05/19 07:57:28;;;;;;;;;;;;;;;27.39;31.89;101803.69;5003920;28;97840;-73
2022/05/19 07:59:54;;;;;;;;;;;;;;;27.55;31.54;101787.78;4999924;28;99190;-72
2022/05/19 08:02:21;;;;;;;;;;;;;;;27.71;31.42;101792.66;4990611;28;98185;-73
2022/05/19 08:04:48;;;;;;;;;;;;;;;27.85;31.05;101794.97;4996591;28;97710;-73
2022/05/19 08:07:14;;;;;;;;;;;;;;;27.69;30.99;101791.97;4995141;28;99397;-73
2022/05/19 08:17:52;;;;;;;;;;;;;;;28.05;30.92;101787.69;4995400;28;97942;-71
2022/05/19 08:20:19;;;;;;;;;;;;;;;27.98;31.20;101783.84;5003733;28;97845;-73
2022/05/19 08:22:45;;;;;;;;;;;;;;;28.05;30.91;101784.97;5002007;28;99334;-72
2022/05/19 08:25:11;;;;;;;;;;;;;;;28.34;30.84;101783.16;5009724;28;96967;-72
2022/05/19 08:27:39;;;;;;;;;;;;;;;28.41;30.71;101787.03;5008001;28;98541;-71
2022/05/19 08:30:06;;;;;;;;;;;;;;;28.66;30.45;101781.97;5000964;28;99268;-72
2022/05/19 08:32:33;;;;;;;;;;;;;;;28.69;30.50;101781.66;5000727;28;99136;-73
2022/05/19 08:34:59;;;;;;;;;;;;;;;28.89;30.51;101780.63;4997205;28;98790;-72
2022/05/19 08:37:26;;;;;;;;;;;;;;;28.99;29.94;101775.16;4993385;28;98545;-72
2022/05/19 08:39:52;;;;;;;;;;;;;;;28.92;30.05;101774.91;4998570;28;99566;-72
2022/05/19 08:42:19;;;;;;;;;;;;;;;28.75;30.29;101784.66;5001404;28;99514;-72
2022/05/19 08:44:49;;;;;;;;;;;;;;;28.62;30.53;101773.22;4999191;28;97714;-72
2022/05/19 08:47:21;;;;;;;;;;;;;;;28.58;30.41;101779.09;4997072;28;98477;-71
2022/05/19 08:49:51;;;;;;;;;;;;;;;28.76;30.24;101772.78;4997740;28;98016;-71
2022/05/19 08:52:18;;;;;;;;;;;;;;;29.25;29.95;101777.06;5000630;28;98974;-72
2022/05/19 08:54:46;;;;;;;;;;;;;;;28.99;29.86;101775.16;5006102;28;98296;-74
2022/05/19 08:57:16;;;;;;;;;;;;;;;28.92;29.84;101774.91;5006126;28;97454;-73
2022/05/19 08:59:48;;;;;;;;;;;;;;;28.99;30.25;101769.72;5004177;28;99186;-73
2022/05/19 09:02:17;;;;;;;;;;;;;;;28.92;30.21;101770.31;5010447;28;98803;-74
2022/05/19 09:04:53;;;;;;;;;;;;;;;28.67;30.04;101776.38;4995864;28;97854;-73
2022/05/19 09:10:16;;;;;;;;;;;;;;;28.99;29.65;101775.16;4991584;28;98151;-72
2022/05/19 09:12:44;;;;;;;;;;;;;;;29.15;29.26;101769.91;4999646;28;99985;-72
2022/05/19 09:15:11;;;;;;;;;;;;;;;28.80;30.08;101757.91;5002179;28;96786;-74
2022/05/19 09:17:40;;;;;;;;;;;;;;;29.00;29.74;101757.84;4994102;28;97154;-73
2022/05/19 09:20:10;;;;;;;;;;;;;;;29.31;29.25;101751.09;5002988;28;98884;-73
2022/05/19 09:22:37;;;;;;;;;;;;;;;28.87;29.52;101752.75;4991998;28;98160;-74
2022/05/19 09:25:05;;;;;;;;;;;;;;;29.34;29.43;101748.13;5006487;28;98948;-73
2022/05/19 09:27:34;;;;;;;;;;;;;;;29.59;28.76;101750.09;4994527;28;96988;-72
2022/05/19 09:30:00;;;;;;;;;;;;;;;29.88;28.74;101746.28;4995603;28;99207;-73
2022/05/19 09:32:29;;;;;;;;;;;;;;;30.10;28.55;101746.72;4998113;28;102157;-72
2022/05/19 09:35:02;;;;;;;;;;;;;;;30.25;27.98;101747.00;5002129;28;98141;-74
2022/05/19 09:37:35;;;;;;;;;;;;;;;30.66;28.27;101741.84;4996911;28;97515;-73
2022/05/19 09:40:08;;;;;;;;;;;;;;;30.18;28.18;101742.34;4991828;28;99270;-74
2022/05/19 09:42:36;;;;;;;;;;;;;;;30.15;28.65;101743.50;4998906;28;98161;-72
2022/05/19 09:45:03;;;;;;;;;;;;;;;30.23;29.24;101740.84;4996389;28;97631;-73
2022/05/19 09:47:31;;;;;;;;;;;;;;;30.14;28.53;101735.47;4997995;28;96940;-73
2022/05/19 09:50:02;;;;;;;;;;;;;;;30.06;29.17;101739.84;4995180;28;98912;-75
2022/05/19 09:52:32;;;;;;;;;;;;;;;30.14;28.79;101739.06;4999832;28;97922;-73
2022/05/19 09:55:00;;;;;;;;;;;;;;;30.25;28.25;101746.16;4997668;28;98097;-73
2022/05/19 09:57:34;;;;;;;;;;;;;;;30.33;28.07;101744.31;4993502;28;97853;-73
2022/05/19 10:00:04;;;;;;;;;;;;;;;30.61;27.87;101736.03;4997360;28;101001;-73
2022/05/19 10:02:32;;;;;;;;;;;;;;;30.57;27.88;101742.84;4999613;28;100155;-73
2022/05/19 10:05:01;;;;;;;;;;;;;;;30.66;28.37;101737.25;5002165;28;97020;-73
2022/05/19 10:07:29;;;;;;;;;;;;;;;30.82;27.35;101736.50;4996420;28;97457;-70
2022/05/19 10:09:57;;;;;;;;;;;;;;;30.85;28.27;101723.38;4997063;28;99259;-71
2022/05/19 10:12:25;;;;;;;;;;;;;;;30.74;27.90;101723.69;4995457;28;101102;-72
2022/05/19 10:14:57;;;;;;;;;;;;;;;30.14;27.61;101719.13;4996363;28;97190;-72
2022/05/19 10:17:32;;;;;;;;;;;;;;;29.99;27.76;101711.53;4996989;28;97895;-73
2022/05/19 10:20:04;;;;;;;;;;;;;;;30.39;27.76;101712.88;4998790;28;98857;-73
2022/05/19 10:22:36;;;;;;;;;;;;;;;30.57;28.03;101710.13;4993852;28;98817;-72
2022/05/19 10:25:12;;;;;;;;;;;;;;;30.26;28.44;101713.25;4996074;28;99333;-71
2022/05/19 10:33:22;;;;;;;;;;;;;;;30.60;27.40;101697.00;4988163;28;98136;-72
2022/05/19 10:35:57;;;;;;;;;;;;;;;30.08;28.29;101696.09;4987253;28;97809;-72
2022/05/19 10:38:34;;;;;;;;;;;;;;;30.38;28.00;101690.19;4986453;28;99057;-73
2022/05/19 10:41:05;;;;;;;;;;;;;;;30.07;28.07;101686.19;4992912;28;99833;-74
2022/05/19 10:43:40;;;;;;;;;;;;;;;30.46;27.61;101682.03;4997017;28;98006;-72
2022/05/19 10:46:10;;;;;;;;;;;;;;;30.72;27.28;101679.31;5004367;28;97455;-74
2022/05/19 10:48:53;;;;;;;;;;;;;;;30.52;27.14;101675.16;4998272;28;97453;-73
2022/05/19 10:51:27;;;;;;;;;;;;;;;30.30;27.30;101671.06;4995760;28;97939;-73
2022/05/19 10:54:08;;;;;;;;;;;;;;;30.41;27.48;101670.78;4997227;28;99310;-75
2022/05/19 10:56:43;;;;;;;;;;;;;;;30.86;27.44;101662.34;4991908;28;98064;-72
2022/05/19 10:59:14;;;;;;;;;;;;;;;31.05;26.96;101663.97;4994832;28;97232;-72
2022/05/19 11:01:48;;;;;;;;;;;;;;;30.12;27.16;101659.34;4995162;28;99393;-73
2022/05/19 11:04:38;;;;;;;;;;;;;;;30.54;26.92;101667.63;4993583;28;97870;-75
2022/05/19 11:07:14;;;;;;;;;;;;;;;30.49;26.61;101653.66;4993397;28;99199;-73
2022/05/19 11:09:46;;;;;;;;;;;;;;;31.00;26.20;101649.94;5004125;28;97021;-74
2022/05/19 11:12:17;;;;;;;;;;;;;;;30.95;26.38;101644.13;5001560;28;99237;-72
2022/05/19 11:14:53;;;;;;;;;;;;;;;31.30;25.62;101647.69;4994728;28;100235;-72
2022/05/19 11:17:25;;;;;;;;;;;;;;;31.22;25.42;101652.09;4994613;28;97788;-73
2022/05/19 11:19:55;;;;;;;;;;;;;;;31.02;25.73;101639.72;5002102;28;96836;-73
2022/05/19 11:22:25;;;;;;;;;;;;;;;31.25;25.45;101635.38;4996242;28;99580;-73
2022/05/19 11:27:39;;;;;;;;;;;;;;;31.85;24.45;101631.53;4997517;28;98190;-73
2022/05/19 11:30:09;;;;;;;;;;;;;;;31.31;25.41;101631.09;5002426;28;97736;-73
2022/05/19 11:32:37;;;;;;;;;;;;;;;31.18;25.47;101626.13;4999029;28;98974;-73
2022/05/19 11:35:07;;;;;;;;;;;;;;;31.59;25.40;101631.66;4999704;28;98810;-73
2022/05/19 11:37:37;;;;;;;;;;;;;;;31.64;24.78;101623.84;4995512;28;96875;-74
2022/05/19 11:40:09;;;;;;;;;;;;;;;31.98;24.48;101618.19;4998504;28;97301;-74
2022/05/19 11:42:40;;;;;;;;;;;;;;;31.78;24.20;101614.09;4996960;28;99422;-74
2022/05/19 11:45:08;;;;;;;;;;;;;;;31.21;24.60;101606.69;4995614;28;98770;-73
2022/05/19 11:55:54;;;;;;;;;;;;;;;31.86;25.23;101605.91;5006580;28;97083;-73
2022/05/19 11:58:24;;;;;;;;;;;;;;;32.01;24.72;101598.72;4999205;28;97162;-72
2022/05/19 12:00:55;;;;;;;;;;;;;;;32.13;24.82;101594.59;5001325;28;96880;-74
2022/05/19 12:03:24;;;;;;;;;;;;;;;32.22;24.34;101592.72;4999776;28;100878;-73
2022/05/19 12:05:54;;;;;;;;;;;;;;;32.20;24.56;101592.03;4994208;28;101517;-72
2022/05/19 12:08:23;;;;;;;;;;;;;;;32.18;24.44;101591.34;4996033;28;96971;-72
2022/05/19 12:10:50;;;;;;;;;;;;;;;31.85;25.00;101593.25;5000060;28;96934;-73
2022/05/19 12:13:19;;;;;;;;;;;;;;;32.13;25.18;101585.53;4989631;28;99163;-72
2022/05/19 12:15:51;;;;;;;;;;;;;;;32.10;24.41;101584.00;4993673;28;97686;-75
2022/05/19 12:18:32;;;;;;;;;;;;;;;32.32;24.33;101585.16;4997139;28;97193;-73
2022/05/19 12:21:20;;;;;;;;;;;;;;;32.23;24.71;101581.59;4997241;28;97360;-74
2022/05/19 12:23:47;;;;;;;;;;;;;;;32.13;24.74;101569.97;5000740;28;99456;-74
2022/05/19 12:26:19;;;;;;;;;;;;;;;32.09;25.11;101576.00;4994041;28;98735;-73
2022/05/19 12:28:50;;;;;;;;;;;;;;;32.25;24.32;101582.28;4994709;28;97327;-74
2022/05/19 12:34:02;;;;;;;;;;;;;;;31.88;24.39;101576.53;5004876;28;97864;-74
2022/05/19 12:36:36;;;;;;;;;;;;;;;32.14;24.23;101568.13;5004619;28;98894;-74
2022/05/19 12:39:26;;;;;;;;;;;;;;;32.35;24.18;101558.34;4993354;28;97970;-74
2022/05/19 12:41:54;;;;;;;;;;;;;;;32.22;24.54;101570.84;4986447;28;97091;-74
2022/05/19 12:44:29;;;;;;;;;;;;;;;32.70;23.66;101573.41;5000352;28;98917;-75
2022/05/19 12:46:58;;;;;;;;;;;;;;;32.27;23.70;101562.97;5001805;28;98833;-73
2022/05/19 12:49:25;;;;;;;;;;;;;;;32.08;24.00;101560.59;5000760;28;97694;-74
2022/05/19 12:51:55;;;;;;;;;;;;;;;32.32;23.68;101546.88;4996730;28;99155;-73
2022/05/19 12:54:22;;;;;;;;;;;;;;;32.45;23.36;101549.91;4996270;28;99414;-74
2022/05/19 12:57:22;;;;;;;;;;;;;;;32.70;23.10;101548.78;4994592;28;102219;-73
2022/05/19 13:00:05;;;;;;;;;;;;;;;33.21;23.00;101540.97;4991860;28;98567;-73
2022/05/19 13:02:32;;;;;;;;;;;;;;;33.17;23.05;101542.31;4998343;28;97428;-73
2022/05/19 13:05:01;;;;;;;;;;;;;;;33.46;22.65;101537.00;4997521;28;99112;-73
2022/05/19 13:07:33;;;;;;;;;;;;;;;33.71;22.37;101529.44;4992908;28;98760;-72
2022/05/19 13:10:02;;;;;;;;;;;;;;;32.88;22.52;101531.25;5006983;28;96966;-74
2022/05/19 13:12:32;;;;;;;;;;;;;;;33.26;21.83;101526.72;4995658;28;98894;-75
2022/05/19 13:15:02;;;;;;;;;;;;;;;33.65;21.49;101521.06;5000119;28;97323;-74
2022/05/19 13:17:33;;;;;;;;;;;;;;;33.94;21.02;101521.13;5006720;28;98942;-74